createdAt,value
2022-11-30T00:01:10.196Z,96.83
2022-11-30T00:03:37.836Z,96.09
2022-11-30T00:06:06.226Z,95.88
2022-11-30T00:08:33.874Z,95.65
2022-11-30T00:11:08.820Z,95.92
2022-11-30T00:13:36.407Z,96.58
2022-11-30T00:16:04.249Z,95.92
2022-11-30T00:18:32.074Z,96.03
2022-11-30T00:21:01.096Z,96.04
2022-11-30T00:23:32.276Z,95.73
2022-11-30T00:26:03.433Z,96.22
2022-11-30T00:28:32.428Z,95.68
2022-11-30T00:31:00.522Z,95.78
2022-11-30T00:33:28.212Z,95.66
2022-11-30T00:35:59.176Z,95.45
2022-11-30T00:38:27.024Z,95.17
2022-11-30T00:40:54.693Z,95.27
2022-11-30T00:43:23.712Z,95.28
2022-11-30T00:45:51.385Z,95.16
2022-11-30T00:48:19.040Z,94.92
2022-11-30T00:50:46.592Z,94.95
2022-11-30T00:53:14.129Z,95.46
2022-11-30T00:55:41.737Z,95.20
2022-11-30T00:58:09.541Z,95.21
2022-11-30T01:00:38.726Z,95.14
2022-11-30T01:03:06.451Z,95.35
2022-11-30T01:05:35.099Z,95.51
2022-11-30T01:08:03.290Z,96.25
2022-11-30T01:10:31.086Z,96.24
2022-11-30T01:12:58.709Z,96.11
2022-11-30T01:15:26.355Z,95.90
2022-11-30T01:17:55.350Z,96.53
2022-11-30T01:20:23.284Z,96.10
2022-11-30T01:22:50.900Z,96.80
2022-11-30T01:25:18.460Z,96.41
2022-11-30T01:27:49.550Z,96.11
2022-11-30T01:30:17.983Z,95.63
2022-11-30T01:32:46.243Z,95.14
2022-11-30T01:35:15.316Z,95.78
2022-11-30T01:37:43.488Z,96.12
2022-11-30T01:40:12.589Z,95.91
2022-11-30T01:42:46.752Z,96.13
2022-11-30T01:45:14.805Z,95.74
2022-11-30T01:47:43.634Z,95.25
2022-11-30T01:50:15.928Z,95.86
2022-11-30T01:52:45.337Z,95.86
2022-11-30T01:55:17.768Z,96.41
2022-11-30T01:57:48.809Z,95.80
2022-11-30T02:00:22.580Z,95.24
2022-11-30T02:02:56.471Z,95.86
2022-11-30T02:05:25.930Z,95.86
2022-11-30T02:07:53.717Z,95.40
2022-11-30T02:10:25.179Z,95.84
2022-11-30T02:13:17.859Z,95.79
2022-11-30T02:15:50.626Z,96.66
2022-11-30T02:18:23.140Z,96.55
2022-11-30T02:20:59.080Z,96.20
2022-11-30T02:24:01.756Z,95.87
2022-11-30T02:26:40.839Z,95.63
2022-11-30T02:29:15.175Z,95.41
2022-11-30T02:31:47.608Z,95.49
2022-11-30T02:34:16.701Z,95.50
2022-11-30T02:36:46.475Z,95.28
2022-11-30T02:39:14.063Z,96.03
2022-11-30T02:41:42.011Z,95.62
2022-11-30T02:44:13.462Z,95.53
2022-11-30T02:46:48.251Z,95.53
2022-11-30T02:49:23.144Z,95.36
2022-11-30T02:51:51.491Z,95.08
2022-11-30T02:54:19.087Z,95.37
2022-11-30T02:56:46.577Z,95.54
2022-11-30T02:59:15.556Z,95.29
2022-11-30T03:01:43.639Z,95.71
2022-11-30T03:04:11.182Z,95.54
2022-11-30T03:06:38.697Z,95.96
2022-11-30T03:09:06.395Z,95.99
2022-11-30T03:11:35.052Z,96.84
2022-11-30T03:14:02.535Z,96.60
2022-11-30T03:16:31.415Z,96.26
2022-11-30T03:18:59.350Z,96.61
2022-11-30T03:21:27.167Z,96.36
2022-11-30T03:23:54.624Z,95.91
2022-11-30T03:26:22.225Z,95.58
2022-11-30T03:28:49.687Z,96.55
2022-11-30T03:31:17.271Z,95.92
2022-11-30T03:33:46.127Z,96.43
2022-11-30T03:36:14.159Z,97.26
2022-11-30T03:38:41.634Z,96.37
2022-11-30T03:41:11.711Z,96.34
2022-11-30T03:43:39.172Z,96.76
2022-11-30T03:46:06.876Z,96.37
2022-11-30T03:48:35.947Z,96.32
2022-11-30T03:51:05.290Z,96.59
2022-11-30T03:53:33.127Z,96.15
2022-11-30T03:56:02.406Z,95.70
2022-11-30T03:58:30.386Z,95.79
2022-11-30T04:01:01.211Z,96.02
2022-11-30T04:03:28.718Z,96.05
2022-11-30T04:05:56.233Z,95.92
2022-11-30T04:08:25.051Z,96.17
2022-11-30T04:10:53.231Z,96.34
2022-11-30T04:13:21.028Z,96.47
2022-11-30T04:15:49.099Z,96.34
2022-11-30T04:18:17.043Z,97.09
2022-11-30T04:20:44.939Z,95.91
2022-11-30T04:23:12.812Z,96.10
2022-11-30T04:25:42.634Z,96.53
2022-11-30T04:28:10.647Z,96.31
2022-11-30T04:30:38.527Z,96.71
2022-11-30T04:33:06.083Z,96.71
2022-11-30T04:35:33.683Z,95.89
2022-11-30T04:38:01.535Z,96.86
2022-11-30T04:40:29.013Z,96.99
2022-11-30T04:42:57.855Z,96.70
2022-11-30T04:45:25.407Z,96.68
2022-11-30T04:47:52.891Z,96.24
2022-11-30T04:50:20.553Z,96.08
2022-11-30T04:52:48.124Z,96.06
2022-11-30T04:55:17.091Z,95.95
2022-11-30T04:57:44.547Z,95.67
2022-11-30T05:00:15.311Z,95.45
2022-11-30T05:02:46.360Z,96.34
2022-11-30T05:05:18.427Z,96.01
2022-11-30T05:07:46.169Z,95.70
2022-11-30T05:10:13.713Z,96.31
2022-11-30T05:12:41.145Z,96.24
2022-11-30T05:15:09.871Z,96.66
2022-11-30T05:17:38.681Z,96.92
2022-11-30T05:20:07.509Z,97.08
2022-11-30T05:22:35.072Z,97.30
2022-11-30T05:25:02.993Z,97.22
2022-11-30T05:27:30.615Z,96.86
2022-11-30T05:29:58.082Z,95.94
2022-11-30T05:32:25.558Z,96.38
2022-11-30T05:34:54.621Z,96.75
2022-11-30T05:37:22.345Z,96.56
2022-11-30T05:39:49.967Z,98.03
2022-11-30T05:42:17.438Z,97.36
2022-11-30T05:44:45.324Z,97.54
2022-11-30T05:47:13.307Z,96.79
2022-11-30T05:49:40.843Z,96.54
2022-11-30T05:52:09.641Z,97.71
2022-11-30T05:54:37.082Z,97.01
2022-11-30T05:57:05.276Z,97.46
2022-11-30T05:59:32.800Z,97.33
2022-11-30T06:02:00.494Z,97.97
2022-11-30T06:04:28.175Z,96.99
2022-11-30T06:06:56.310Z,96.54
2022-11-30T06:09:25.217Z,96.38
2022-11-30T06:11:52.712Z,95.93
2022-11-30T06:14:20.214Z,95.91
2022-11-30T06:16:47.773Z,95.80
2022-11-30T06:19:15.290Z,96.21
2022-11-30T06:21:42.774Z,96.19
2022-11-30T06:24:10.958Z,97.05
2022-11-30T06:26:39.815Z,96.22
2022-11-30T06:29:07.307Z,95.85
2022-11-30T06:31:34.992Z,96.55
2022-11-30T06:34:02.563Z,96.06
2022-11-30T06:36:35.696Z,96.46
2022-11-30T06:39:03.937Z,97.22
2022-11-30T06:41:31.450Z,97.22
2022-11-30T06:44:00.295Z,97.05
2022-11-30T06:46:27.903Z,96.87
2022-11-30T06:48:55.603Z,96.38
2022-11-30T06:51:23.100Z,96.63
2022-11-30T06:53:50.563Z,96.45
2022-11-30T06:56:18.067Z,97.02
2022-11-30T06:58:45.674Z,96.92
2022-11-30T07:01:15.612Z,97.81
2022-11-30T07:03:43.358Z,97.05
2022-11-30T07:06:12.368Z,97.01
2022-11-30T07:08:40.663Z,97.55
2022-11-30T07:11:09.309Z,98.70
2022-11-30T07:13:37.132Z,97.63
2022-11-30T07:16:05.793Z,97.72
2022-11-30T07:18:34.994Z,96.93
2022-11-30T07:21:03.291Z,97.15
2022-11-30T07:23:56.681Z,97.15
2022-11-30T07:26:24.802Z,96.76
2022-11-30T07:28:55.351Z,97.44
2022-11-30T07:31:25.011Z,97.41
2022-11-30T07:33:54.391Z,97.98
2022-11-30T07:36:23.723Z,97.45
2022-11-30T07:38:51.265Z,97.54
2022-11-30T07:41:19.031Z,98.45
2022-11-30T07:43:46.505Z,97.65
2022-11-30T07:46:15.343Z,97.53
2022-11-30T07:48:43.759Z,97.08
2022-11-30T07:51:14.865Z,96.83
2022-11-30T07:53:42.353Z,96.67
2022-11-30T07:56:11.774Z,96.77
2022-11-30T07:58:41.041Z,96.70
2022-11-30T08:01:12.313Z,96.58
2022-11-30T08:03:40.018Z,96.44
2022-11-30T08:06:09.519Z,97.07
2022-11-30T08:08:40.314Z,97.87
2022-11-30T08:11:09.011Z,97.45
2022-11-30T08:13:36.670Z,96.46
2022-11-30T08:16:07.675Z,96.96
2022-11-30T08:18:35.392Z,96.12
2022-11-30T08:21:04.658Z,96.29
2022-11-30T08:23:33.722Z,96.18
2022-11-30T08:26:06.177Z,97.13
2022-11-30T08:28:35.881Z,97.00
2022-11-30T08:31:04.533Z,96.58
2022-11-30T08:33:32.196Z,97.03
2022-11-30T08:36:06.905Z,97.16
2022-11-30T08:38:34.568Z,96.62
2022-11-30T08:41:03.000Z,96.68
2022-11-30T08:43:32.082Z,97.38
2022-11-30T08:45:59.679Z,97.23
2022-11-30T08:48:27.207Z,97.07
2022-11-30T08:50:54.739Z,96.60
2022-11-30T08:53:22.188Z,97.05
2022-11-30T08:55:56.883Z,96.55
2022-11-30T08:58:24.447Z,97.25
2022-11-30T09:00:53.709Z,97.57
2022-11-30T09:03:21.543Z,97.64
2022-11-30T09:05:49.083Z,97.84
2022-11-30T09:08:16.538Z,97.23
2022-11-30T09:10:43.984Z,97.54
2022-11-30T09:13:11.435Z,97.29
2022-11-30T09:15:38.927Z,97.33
2022-11-30T09:18:07.803Z,97.13
2022-11-30T09:20:35.915Z,97.61
2022-11-30T09:23:03.375Z,97.99
2022-11-30T09:25:30.882Z,98.53
2022-11-30T09:27:58.553Z,98.47
2022-11-30T09:30:26.157Z,97.71
2022-11-30T09:32:53.882Z,97.90
2022-11-30T09:35:22.844Z,98.69
2022-11-30T09:37:50.314Z,98.54
2022-11-30T09:40:18.091Z,98.74
2022-11-30T09:42:52.526Z,98.87
2022-11-30T09:45:24.452Z,98.29
2022-11-30T09:48:13.708Z,97.88
2022-11-30T09:50:44.096Z,97.63
2022-11-30T09:53:17.349Z,97.36
2022-11-30T09:55:45.479Z,97.40
2022-11-30T09:58:22.659Z,97.09
2022-11-30T10:00:50.143Z,96.95
2022-11-30T10:03:19.388Z,96.82
2022-11-30T10:05:49.699Z,96.86
2022-11-30T10:08:32.376Z,97.47
2022-11-30T10:11:25.524Z,97.81
2022-11-30T10:14:02.667Z,97.74
2022-11-30T10:16:39.911Z,97.22
2022-11-30T10:19:14.142Z,98.06
2022-11-30T10:21:52.543Z,97.62
2022-11-30T10:24:31.306Z,97.46
2022-11-30T10:26:59.567Z,98.22
2022-11-30T10:29:31.742Z,98.27
2022-11-30T10:32:00.744Z,98.64
2022-11-30T10:34:32.152Z,98.05
2022-11-30T10:37:04.818Z,97.12
2022-11-30T10:39:35.462Z,97.19
2022-11-30T10:42:06.444Z,96.73
2022-11-30T10:44:39.430Z,96.48
2022-11-30T10:47:13.419Z,97.27
2022-11-30T10:49:50.475Z,98.04
2022-11-30T10:52:23.226Z,97.73
2022-11-30T10:54:51.499Z,97.69
2022-11-30T10:57:18.954Z,97.56
2022-11-30T10:59:49.631Z,97.75
2022-11-30T11:02:39.320Z,97.83
2022-11-30T11:05:23.003Z,97.17
2022-11-30T11:07:59.850Z,97.09
2022-11-30T11:10:34.377Z,96.99
2022-11-30T11:13:01.973Z,97.93
2022-11-30T11:15:30.949Z,98.28
2022-11-30T11:18:21.222Z,98.45
2022-11-30T11:20:50.138Z,98.40
2022-11-30T11:23:31.643Z,98.30
2022-11-30T11:25:59.171Z,98.75
2022-11-30T11:28:26.940Z,99.38
2022-11-30T11:30:55.753Z,99.96
2022-11-30T11:33:24.626Z,99.42
2022-11-30T11:35:53.351Z,99.15
2022-11-30T11:38:27.117Z,100.00
2022-11-30T11:40:59.997Z,98.42
2022-11-30T11:43:29.603Z,98.41
2022-11-30T11:45:59.864Z,97.95
2022-11-30T11:48:30.686Z,98.48
2022-11-30T11:51:06.697Z,98.24
2022-11-30T11:53:51.643Z,98.07
2022-11-30T11:56:25.327Z,99.55
2022-11-30T11:58:57.808Z,100.00
2022-11-30T12:01:41.397Z,99.06
2022-11-30T12:04:28.752Z,98.76
2022-11-30T12:06:56.727Z,98.04
2022-11-30T12:09:29.786Z,97.87
2022-11-30T12:11:57.262Z,97.86
2022-11-30T12:14:26.426Z,98.14
2022-11-30T12:17:10.684Z,97.93
2022-11-30T12:19:42.710Z,97.82
2022-11-30T12:22:20.755Z,97.96
2022-11-30T12:24:55.366Z,97.61
2022-11-30T12:27:27.806Z,97.93
2022-11-30T12:30:02.916Z,97.90
2022-11-30T12:32:42.316Z,97.44
2022-11-30T12:35:20.036Z,97.22
2022-11-30T12:37:55.947Z,97.66
2022-11-30T12:40:34.372Z,97.76
2022-11-30T12:43:07.271Z,97.68
2022-11-30T12:45:37.192Z,97.62
2022-11-30T12:48:12.071Z,97.89
2022-11-30T12:50:50.443Z,97.46
2022-11-30T12:53:22.334Z,97.67
2022-11-30T12:55:57.822Z,98.73
2022-11-30T12:58:32.375Z,97.99
2022-11-30T13:01:11.243Z,97.47
2022-11-30T13:03:44.555Z,97.47
2022-11-30T13:06:14.611Z,97.71
2022-11-30T13:08:48.055Z,97.44
2022-11-30T13:11:19.716Z,97.49
2022-11-30T13:13:50.926Z,97.34
2022-11-30T13:16:19.032Z,97.25
2022-11-30T13:18:47.003Z,97.79
2022-11-30T13:21:18.750Z,97.75
2022-11-30T13:23:53.172Z,97.74
2022-11-30T13:26:27.238Z,97.96
2022-11-30T13:29:05.005Z,97.79
2022-11-30T13:31:35.990Z,97.23
2022-11-30T13:34:03.505Z,97.04
2022-11-30T13:36:37.983Z,96.63
2022-11-30T13:39:21.406Z,97.25
2022-11-30T13:41:51.671Z,97.58
2022-11-30T13:44:25.294Z,97.13
2022-11-30T13:46:53.572Z,96.70
2022-11-30T13:49:23.176Z,96.33
2022-11-30T13:52:13.654Z,97.37
2022-11-30T13:54:40.798Z,97.40
2022-11-30T13:57:40.507Z,96.72
2022-11-30T14:00:41.525Z,97.23
2022-11-30T14:03:28.198Z,96.93
2022-11-30T14:05:56.555Z,96.75
2022-11-30T14:08:35.675Z,96.24
2022-11-30T14:11:41.154Z,97.41
2022-11-30T14:14:47.723Z,96.96
2022-11-30T14:17:18.931Z,96.93
2022-11-30T14:19:47.446Z,96.64
2022-11-30T14:22:15.817Z,97.18
2022-11-30T14:24:46.664Z,96.43
2022-11-30T14:27:18.227Z,97.29
2022-11-30T14:29:53.042Z,96.60
2022-11-30T14:32:27.143Z,97.04
2022-11-30T14:34:57.083Z,96.71
2022-11-30T14:37:27.359Z,96.89
2022-11-30T14:39:56.499Z,96.74
2022-11-30T14:42:25.829Z,96.63
2022-11-30T14:44:55.290Z,96.52
2022-11-30T14:47:24.780Z,96.97
2022-11-30T14:49:54.985Z,97.41
2022-11-30T14:52:38.164Z,96.78
2022-11-30T14:55:14.708Z,96.75
2022-11-30T14:57:47.854Z,97.45
2022-11-30T15:00:18.719Z,97.44
2022-11-30T15:02:46.558Z,96.60
2022-11-30T15:05:17.158Z,96.51
2022-11-30T15:07:45.401Z,96.63
2022-11-30T15:10:15.609Z,96.48
2022-11-30T15:12:44.662Z,96.63
2022-11-30T15:15:18.523Z,96.38
2022-11-30T15:17:54.486Z,96.38
2022-11-30T15:20:30.723Z,96.42
2022-11-30T15:22:59.306Z,96.87
2022-11-30T15:25:31.590Z,96.64
2022-11-30T15:27:59.822Z,96.36
2022-11-30T15:30:28.853Z,96.42
2022-11-30T15:32:57.295Z,96.39
2022-11-30T15:35:38.553Z,96.53
2022-11-30T15:38:19.246Z,97.29
2022-11-30T15:40:53.160Z,97.06
2022-11-30T15:43:23.854Z,96.74
2022-11-30T15:45:57.760Z,96.58
2022-11-30T15:48:31.027Z,97.00
2022-11-30T15:50:59.012Z,97.39
2022-11-30T15:53:33.235Z,97.50
2022-11-30T15:56:03.852Z,97.72
2022-11-30T15:58:34.598Z,97.76
2022-11-30T16:01:06.329Z,97.33
2022-11-30T16:03:34.825Z,97.42
2022-11-30T16:06:04.720Z,98.01
2022-11-30T16:08:32.676Z,98.63
2022-11-30T16:11:04.756Z,98.14
2022-11-30T16:13:35.419Z,97.28
2022-11-30T16:16:11.995Z,97.59
2022-11-30T16:18:39.510Z,97.76
2022-11-30T16:21:07.248Z,97.71
2022-11-30T16:23:35.626Z,97.62
2022-11-30T16:26:03.074Z,96.98
2022-11-30T16:28:30.534Z,96.80
2022-11-30T16:31:00.911Z,96.78
2022-11-30T16:33:29.733Z,96.64
2022-11-30T16:35:59.330Z,96.77
2022-11-30T16:38:27.346Z,96.57
2022-11-30T16:40:56.137Z,96.61
2022-11-30T16:43:26.002Z,96.49
2022-11-30T16:45:53.539Z,96.48
2022-11-30T16:48:21.008Z,96.23
2022-11-30T16:50:49.820Z,96.52
2022-11-30T16:53:17.289Z,96.47
2022-11-30T16:55:44.817Z,96.32
2022-11-30T16:58:12.275Z,96.48
2022-11-30T17:00:40.472Z,95.72
2022-11-30T17:03:10.620Z,96.03
2022-11-30T17:05:38.101Z,95.87
2022-11-30T17:08:07.057Z,96.25
2022-11-30T17:10:34.609Z,96.29
2022-11-30T17:13:02.946Z,96.24
2022-11-30T17:15:30.467Z,96.16
2022-11-30T17:17:59.260Z,96.06
2022-11-30T17:20:28.003Z,96.05
2022-11-30T17:22:55.444Z,96.11
2022-11-30T17:25:24.794Z,96.29
2022-11-30T17:27:52.463Z,96.40
2022-11-30T17:30:22.061Z,96.09
2022-11-30T17:32:50.482Z,96.10
2022-11-30T17:35:18.354Z,95.78
2022-11-30T17:37:46.011Z,95.87
2022-11-30T17:40:15.335Z,95.97
2022-11-30T17:42:44.391Z,96.09
2022-11-30T17:45:12.136Z,96.31
2022-11-30T17:47:39.605Z,96.09
2022-11-30T17:50:08.653Z,95.73
2022-11-30T17:52:36.130Z,96.08
2022-11-30T17:55:03.648Z,96.43
2022-11-30T17:57:31.143Z,95.84
2022-11-30T17:59:59.935Z,95.85
2022-11-30T18:02:27.494Z,95.73
2022-11-30T18:04:55.724Z,96.05
2022-11-30T18:07:23.224Z,96.24
2022-11-30T18:09:50.742Z,96.30
2022-11-30T18:12:18.213Z,95.87
2022-11-30T18:14:46.857Z,95.84
2022-11-30T18:17:15.920Z,96.34
2022-11-30T18:19:43.425Z,96.30
2022-11-30T18:22:10.878Z,95.97
2022-11-30T18:24:38.351Z,96.31
2022-11-30T18:27:05.812Z,96.00
2022-11-30T18:29:33.362Z,96.02
2022-11-30T18:32:00.816Z,96.21
2022-11-30T18:34:29.863Z,95.88
2022-11-30T18:36:57.395Z,95.87
2022-11-30T18:39:24.907Z,95.77
2022-11-30T18:41:52.451Z,95.65
2022-11-30T18:44:19.915Z,95.77
2022-11-30T18:46:47.347Z,95.93
2022-11-30T18:49:14.831Z,96.08
2022-11-30T18:51:43.650Z,95.83
2022-11-30T18:54:11.330Z,95.71
2022-11-30T18:56:39.402Z,95.79
2022-11-30T18:59:08.813Z,96.05
2022-11-30T19:01:37.030Z,96.29
2022-11-30T19:04:06.735Z,95.98
2022-11-30T19:06:35.112Z,96.43
2022-11-30T19:09:06.212Z,96.07
2022-11-30T19:11:34.158Z,96.21
2022-11-30T19:14:01.845Z,96.28
2022-11-30T19:16:30.496Z,95.74
2022-11-30T19:19:00.730Z,96.91
2022-11-30T19:21:28.324Z,96.68
2022-11-30T19:23:55.863Z,97.47
2022-11-30T19:26:24.774Z,97.36
2022-11-30T19:28:54.509Z,96.71
2022-11-30T19:31:22.643Z,96.44
2022-11-30T19:33:52.121Z,95.81
2022-11-30T19:36:21.154Z,95.89
2022-11-30T19:38:49.658Z,96.46
2022-11-30T19:41:18.631Z,96.14
2022-11-30T19:43:53.953Z,96.88
2022-11-30T19:46:23.433Z,97.06
2022-11-30T19:48:56.520Z,96.20
2022-11-30T19:51:24.650Z,96.30
2022-11-30T19:53:55.378Z,95.95
2022-11-30T19:56:24.034Z,96.02
2022-11-30T19:58:53.159Z,95.57
2022-11-30T20:01:23.611Z,96.45
2022-11-30T20:03:51.859Z,96.57
2022-11-30T20:06:20.270Z,96.37
2022-11-30T20:08:47.881Z,96.37
2022-11-30T20:11:16.243Z,96.50
2022-11-30T20:13:43.819Z,96.32
2022-11-30T20:16:13.984Z,95.79
2022-11-30T20:18:45.969Z,95.73
2022-11-30T20:21:15.439Z,96.09
2022-11-30T20:23:44.258Z,96.79
2022-11-30T20:26:16.263Z,96.17
2022-11-30T20:28:44.043Z,95.71
2022-11-30T20:31:14.004Z,95.76
2022-11-30T20:33:41.980Z,95.58
2022-11-30T20:36:11.203Z,96.01
2022-11-30T20:38:39.394Z,96.32
2022-11-30T20:41:10.827Z,96.14
2022-11-30T20:43:38.350Z,96.11
2022-11-30T20:46:14.701Z,96.14
2022-11-30T20:48:42.259Z,96.72
2022-11-30T20:53:58.548Z,95.92
2022-11-30T20:56:26.034Z,95.79
2022-11-30T20:58:53.527Z,95.44
2022-11-30T21:01:23.976Z,95.50
2022-11-30T21:03:51.468Z,95.05
2022-11-30T21:06:18.935Z,95.48
2022-11-30T21:08:59.334Z,95.44
2022-11-30T21:11:39.275Z,95.27
2022-11-30T21:14:08.076Z,95.52
2022-11-30T21:16:39.789Z,95.23
2022-11-30T21:19:10.883Z,95.40
2022-11-30T21:21:38.436Z,94.90
2022-11-30T21:24:07.802Z,95.20
2022-11-30T21:26:37.441Z,95.22
2022-11-30T21:29:07.213Z,95.27
2022-11-30T21:31:34.928Z,95.40
2022-11-30T21:34:04.158Z,95.11
2022-11-30T21:36:31.672Z,95.15
2022-11-30T21:39:05.576Z,94.96
2022-11-30T21:41:34.516Z,95.32
2022-11-30T21:44:03.445Z,95.00
2022-11-30T21:46:31.054Z,95.30
2022-11-30T21:48:58.580Z,94.86
2022-11-30T21:51:28.846Z,95.35
2022-11-30T21:53:57.935Z,95.81
2022-11-30T21:56:26.587Z,95.57
2022-11-30T21:58:54.422Z,95.27
2022-11-30T22:01:24.127Z,95.00
2022-11-30T22:03:53.744Z,95.34
2022-11-30T22:06:21.314Z,95.27
2022-11-30T22:08:50.200Z,95.32
2022-11-30T22:11:19.239Z,95.46
2022-11-30T22:13:50.643Z,95.50
2022-11-30T22:16:19.142Z,95.23
2022-11-30T22:18:47.228Z,95.60
2022-11-30T22:21:16.667Z,95.79
2022-11-30T22:23:46.747Z,95.27
2022-11-30T22:26:16.970Z,95.60
2022-11-30T22:28:46.215Z,95.56
2022-11-30T22:31:15.951Z,95.29
2022-11-30T22:33:44.275Z,96.23
2022-11-30T22:36:14.272Z,95.71
2022-11-30T22:38:41.986Z,95.80
2022-11-30T22:41:11.797Z,95.54
2022-11-30T22:43:41.177Z,95.34
2022-11-30T22:46:10.272Z,95.04
2022-11-30T22:48:38.175Z,95.39
2022-11-30T22:51:06.930Z,95.27
2022-11-30T22:53:34.914Z,95.22
2022-11-30T22:56:05.712Z,94.65
2022-11-30T22:58:33.260Z,94.74
2022-11-30T23:01:12.506Z,94.77
2022-11-30T23:03:41.223Z,95.64
2022-11-30T23:06:09.263Z,95.21
2022-11-30T23:08:37.338Z,94.95
2022-11-30T23:11:08.813Z,94.99
2022-11-30T23:13:36.650Z,95.48
2022-11-30T23:16:07.383Z,95.34
2022-11-30T23:18:40.116Z,95.83
2022-11-30T23:21:10.503Z,95.29
2022-11-30T23:23:37.979Z,94.86
2022-11-30T23:26:12.045Z,94.87
2022-11-30T23:28:40.911Z,94.92
2022-11-30T23:31:10.038Z,94.85
2022-11-30T23:33:39.606Z,95.18
2022-11-30T23:36:07.903Z,94.21
2022-11-30T23:38:35.787Z,94.82
2022-11-30T23:41:04.898Z,94.73
2022-11-30T23:43:32.575Z,94.56
2022-11-30T23:46:00.047Z,95.23
2022-11-30T23:48:27.928Z,95.07
2022-11-30T23:50:56.879Z,94.83
2022-11-30T23:53:24.452Z,94.58
2022-11-30T23:55:52.435Z,94.82
2022-11-30T23:58:20.308Z,94.37
